sensor_id;sensor_type;location;lat;lon;timestamp;pressure;altitude;pressure_sealevel;temperature;humidity
37634;BME280;32048;49.902;22.508;2022-10-17T00:00:48;99828.41;;;13.64;82.08
37634;BME280;32048;49.902;22.508;2022-10-17T00:03:29;99819.59;;;13.64;82.35
37634;BME280;32048;49.902;22.508;2022-10-17T00:05:56;99826.75;;;13.62;82.56
37634;BME280;32048;49.902;22.508;2022-10-17T00:08:24;99833.13;;;13.58;82.75
37634;BME280;32048;49.902;22.508;2022-10-17T00:10:55;99828.84;;;13.55;83.01
37634;BME280;32048;49.902;22.508;2022-10-17T00:13:23;99830.19;;;13.45;83.77
37634;BME280;32048;49.902;22.508;2022-10-17T00:15:51;99827.91;;;13.37;84.42
37634;BME280;32048;49.902;22.508;2022-10-17T00:18:18;99826.25;;;13.35;85.03
37634;BME280;32048;49.902;22.508;2022-10-17T00:20:45;99837.88;;;13.32;84.93
37634;BME280;32048;49.902;22.508;2022-10-17T00:23:12;99836.13;;;13.31;85.31
37634;BME280;32048;49.902;22.508;2022-10-17T00:25:38;99832.75;;;13.27;85.41
37634;BME280;32048;49.902;22.508;2022-10-17T00:28:10;99829.22;;;13.27;86.08
37634;BME280;32048;49.902;22.508;2022-10-17T00:30:38;99825.69;;;13.28;85.94
37634;BME280;32048;49.902;22.508;2022-10-17T00:33:05;99825.53;;;13.31;85.65
37634;BME280;32048;49.902;22.508;2022-10-17T00:35:32;99822.81;;;13.33;85.68
37634;BME280;32048;49.902;22.508;2022-10-17T00:37:59;99821.81;;;13.35;85.32
37634;BME280;32048;49.902;22.508;2022-10-17T00:40:26;99825.25;;;13.37;85.10
37634;BME280;32048;49.902;22.508;2022-10-17T00:42:52;99819.78;;;13.40;84.67
37634;BME280;32048;49.902;22.508;2022-10-17T00:47:53;99819.56;;;13.45;84.41
37634;BME280;32048;49.902;22.508;2022-10-17T00:50:23;99827.53;;;13.45;84.49
37634;BME280;32048;49.902;22.508;2022-10-17T00:52:50;99823.13;;;13.45;84.38
37634;BME280;32048;49.902;22.508;2022-10-17T00:55:27;99816.88;;;13.46;84.16
37634;BME280;32048;49.902;22.508;2022-10-17T00:57:58;99824.66;;;13.49;84.04
37634;BME280;32048;49.902;22.508;2022-10-17T01:00:26;99824.81;;;13.46;84.44
37634;BME280;32048;49.902;22.508;2022-10-17T01:02:53;99825.03;;;13.42;84.82
37634;BME280;32048;49.902;22.508;2022-10-17T01:05:21;99824.25;;;13.40;84.81
37634;BME280;32048;49.902;22.508;2022-10-17T01:07:49;99820.97;;;13.35;85.13
37634;BME280;32048;49.902;22.508;2022-10-17T01:10:18;99836.09;;;13.33;85.40
37634;BME280;32048;49.902;22.508;2022-10-17T01:21:30;99818.59;;;13.27;85.80
37634;BME280;32048;49.902;22.508;2022-10-17T01:24:34;99822.03;;;13.30;85.66
37634;BME280;32048;49.902;22.508;2022-10-17T01:26:55;99822.66;;;13.36;85.29
37634;BME280;32048;49.902;22.508;2022-10-17T01:32:25;99829.50;;;13.41;84.85
37634;BME280;32048;49.902;22.508;2022-10-17T01:34:59;99826.47;;;13.49;84.27
37634;BME280;32048;49.902;22.508;2022-10-17T01:37:32;99822.59;;;13.56;83.46
37634;BME280;32048;49.902;22.508;2022-10-17T01:40:34;99825.13;;;13.59;83.16
37634;BME280;32048;49.902;22.508;2022-10-17T01:43:15;99852.44;;;13.61;83.20
37634;BME280;32048;49.902;22.508;2022-10-17T01:48:49;99826.75;;;13.62;82.92
37634;BME280;32048;49.902;22.508;2022-10-17T01:51:24;99829.47;;;13.60;82.85
37634;BME280;32048;49.902;22.508;2022-10-17T01:53:57;99829.41;;;13.62;82.78
37634;BME280;32048;49.902;22.508;2022-10-17T01:56:29;99827.69;;;13.61;82.68
37634;BME280;32048;49.902;22.508;2022-10-17T01:59:05;99824.91;;;13.64;82.47
37634;BME280;32048;49.902;22.508;2022-10-17T02:01:35;99823.25;;;13.61;82.97
37634;BME280;32048;49.902;22.508;2022-10-17T02:04:05;99832.28;;;13.57;83.28
37634;BME280;32048;49.902;22.508;2022-10-17T02:06:34;99834.16;;;13.55;83.26
37634;BME280;32048;49.902;22.508;2022-10-17T02:20:27;99844.53;;;13.60;82.89
37634;BME280;32048;49.902;22.508;2022-10-17T02:29:05;99853.59;;;13.56;83.08
37634;BME280;32048;49.902;22.508;2022-10-17T02:31:46;99849.34;;;13.51;83.26
37634;BME280;32048;49.902;22.508;2022-10-17T02:34:21;99849.56;;;13.47;83.68
37634;BME280;32048;49.902;22.508;2022-10-17T02:36:56;99857.63;;;13.45;83.97
37634;BME280;32048;49.902;22.508;2022-10-17T02:39:26;99858.75;;;13.40;84.28
37634;BME280;32048;49.902;22.508;2022-10-17T02:41:55;99858.00;;;13.36;84.55
37634;BME280;32048;49.902;22.508;2022-10-17T02:44:23;99858.31;;;13.30;85.07
37634;BME280;32048;49.902;22.508;2022-10-17T02:46:54;99855.66;;;13.30;85.09
37634;BME280;32048;49.902;22.508;2022-10-17T02:49:28;99852.00;;;13.33;84.84
37634;BME280;32048;49.902;22.508;2022-10-17T02:54:39;99857.03;;;13.39;84.41
37634;BME280;32048;49.902;22.508;2022-10-17T02:57:18;99854.50;;;13.36;84.38
37634;BME280;32048;49.902;22.508;2022-10-17T02:59:48;99865.91;;;13.38;84.76
37634;BME280;32048;49.902;22.508;2022-10-17T03:02:16;99866.19;;;13.31;84.90
37634;BME280;32048;49.902;22.508;2022-10-17T03:04:44;99864.66;;;13.26;85.54
37634;BME280;32048;49.902;22.508;2022-10-17T03:07:11;99866.56;;;13.22;85.87
37634;BME280;32048;49.902;22.508;2022-10-17T03:09:38;99870.28;;;13.18;86.01
37634;BME280;32048;49.902;22.508;2022-10-17T03:12:05;99868.56;;;13.17;86.14
37634;BME280;32048;49.902;22.508;2022-10-17T03:14:32;99872.88;;;13.20;86.00
37634;BME280;32048;49.902;22.508;2022-10-17T03:16:59;99871.75;;;13.25;85.65
37634;BME280;32048;49.902;22.508;2022-10-17T03:19:26;99873.47;;;13.26;85.40
37634;BME280;32048;49.902;22.508;2022-10-17T03:21:53;99884.13;;;13.25;85.47
37634;BME280;32048;49.902;22.508;2022-10-17T03:24:20;99889.53;;;13.23;85.80
37634;BME280;32048;49.902;22.508;2022-10-17T03:26:47;99886.94;;;13.22;85.88
37634;BME280;32048;49.902;22.508;2022-10-17T03:29:14;99884.28;;;13.22;85.79
37634;BME280;32048;49.902;22.508;2022-10-17T03:31:41;99883.41;;;13.21;85.66
37634;BME280;32048;49.902;22.508;2022-10-17T03:34:07;99876.94;;;13.28;85.14
37634;BME280;32048;49.902;22.508;2022-10-17T03:36:34;99882.81;;;13.35;84.41
37634;BME280;32048;49.902;22.508;2022-10-17T03:39:01;99884.25;;;13.42;84.00
37634;BME280;32048;49.902;22.508;2022-10-17T03:41:28;99884.25;;;13.42;83.92
37634;BME280;32048;49.902;22.508;2022-10-17T03:43:55;99894.97;;;13.41;84.23
37634;BME280;32048;49.902;22.508;2022-10-17T03:46:22;99887.06;;;13.39;84.03
37634;BME280;32048;49.902;22.508;2022-10-17T03:48:49;99896.94;;;13.36;84.14
37634;BME280;32048;49.902;22.508;2022-10-17T03:51:16;99894.38;;;13.34;84.37
37634;BME280;32048;49.902;22.508;2022-10-17T03:53:43;99903.19;;;13.35;84.35
37634;BME280;32048;49.902;22.508;2022-10-17T03:56:18;99907.72;;;13.33;84.27
37634;BME280;32048;49.902;22.508;2022-10-17T03:58:45;99906.06;;;13.30;84.54
37634;BME280;32048;49.902;22.508;2022-10-17T04:01:14;99905.28;;;13.26;84.78
37634;BME280;32048;49.902;22.508;2022-10-17T04:03:42;99906.16;;;13.27;84.64
37634;BME280;32048;49.902;22.508;2022-10-17T04:06:12;99915.91;;;13.26;84.83
37634;BME280;32048;49.902;22.508;2022-10-17T04:08:39;99917.63;;;13.27;84.68
37634;BME280;32048;49.902;22.508;2022-10-17T04:11:07;99918.56;;;13.26;84.54
37634;BME280;32048;49.902;22.508;2022-10-17T04:13:34;99910.66;;;13.25;84.69
37634;BME280;32048;49.902;22.508;2022-10-17T04:16:05;99917.84;;;13.23;84.90
37634;BME280;32048;49.902;22.508;2022-10-17T04:18:32;99917.91;;;13.21;84.89
37634;BME280;32048;49.902;22.508;2022-10-17T04:21:03;99931.22;;;13.20;85.12
37634;BME280;32048;49.902;22.508;2022-10-17T04:23:31;99928.56;;;13.20;85.39
37634;BME280;32048;49.902;22.508;2022-10-17T04:25:59;99933.06;;;13.18;85.41
37634;BME280;32048;49.902;22.508;2022-10-17T04:28:27;99936.69;;;13.17;85.52
37634;BME280;32048;49.902;22.508;2022-10-17T04:30:58;99930.63;;;13.13;85.54
37634;BME280;32048;49.902;22.508;2022-10-17T04:33:25;99928.97;;;13.10;85.95
37634;BME280;32048;49.902;22.508;2022-10-17T04:38:27;99927.38;;;13.06;85.88
37634;BME280;32048;49.902;22.508;2022-10-17T04:41:02;99927.31;;;13.08;85.90
37634;BME280;32048;49.902;22.508;2022-10-17T04:43:31;99930.78;;;13.10;85.64
37634;BME280;32048;49.902;22.508;2022-10-17T04:46:03;99923.72;;;13.09;85.94
37634;BME280;32048;49.902;22.508;2022-10-17T04:48:31;99943.19;;;13.09;85.55
37634;BME280;32048;49.902;22.508;2022-10-17T04:50:59;99939.38;;;13.15;85.29
37634;BME280;32048;49.902;22.508;2022-10-17T04:53:27;99940.25;;;13.16;84.98
37634;BME280;32048;49.902;22.508;2022-10-17T04:55:56;99948.28;;;13.14;85.33
37634;BME280;32048;49.902;22.508;2022-10-17T04:58:23;99943.88;;;13.13;85.18
37634;BME280;32048;49.902;22.508;2022-10-17T05:00:50;99948.34;;;13.13;85.21
37634;BME280;32048;49.902;22.508;2022-10-17T05:03:17;99946.63;;;13.12;85.58
37634;BME280;32048;49.902;22.508;2022-10-17T05:05:44;99956.34;;;13.11;85.39
37634;BME280;32048;49.902;22.508;2022-10-17T05:08:11;99954.50;;;13.13;85.33
37634;BME280;32048;49.902;22.508;2022-10-17T05:10:43;99962.44;;;13.13;85.69
37634;BME280;32048;49.902;22.508;2022-10-17T05:13:12;99973.41;;;13.26;84.65
37634;BME280;32048;49.902;22.508;2022-10-17T05:15:39;99962.00;;;13.44;83.89
37634;BME280;32048;49.902;22.508;2022-10-17T05:18:06;99975.19;;;13.66;81.97
37634;BME280;32048;49.902;22.508;2022-10-17T05:20:33;99974.50;;;13.82;81.22
37634;BME280;32048;49.902;22.508;2022-10-17T05:23:01;99976.44;;;13.97;80.05
37634;BME280;32048;49.902;22.508;2022-10-17T05:25:28;99986.47;;;14.09;78.87
37634;BME280;32048;49.902;22.508;2022-10-17T05:27:55;99977.78;;;14.25;78.03
37634;BME280;32048;49.902;22.508;2022-10-17T05:30:22;99986.06;;;14.38;77.54
37634;BME280;32048;49.902;22.508;2022-10-17T05:32:52;99984.38;;;14.54;76.00
37634;BME280;32048;49.902;22.508;2022-10-17T05:35:21;99985.34;;;14.70;74.92
37634;BME280;32048;49.902;22.508;2022-10-17T05:37:48;99982.16;;;14.81;74.52
37634;BME280;32048;49.902;22.508;2022-10-17T05:40:15;99989.47;;;14.95;73.86
37634;BME280;32048;49.902;22.508;2022-10-17T05:42:48;99999.25;;;15.12;72.87
37634;BME280;32048;49.902;22.508;2022-10-17T05:45:15;99996.66;;;15.28;72.13
37634;BME280;32048;49.902;22.508;2022-10-17T05:47:42;99994.25;;;15.41;71.36
37634;BME280;32048;49.902;22.508;2022-10-17T05:50:09;100020.81;;;15.58;69.79
37634;BME280;32048;49.902;22.508;2022-10-17T05:52:36;100021.84;;;15.73;69.96
37634;BME280;32048;49.902;22.508;2022-10-17T05:55:04;100025.28;;;15.92;68.58
37634;BME280;32048;49.902;22.508;2022-10-17T05:57:31;100019.88;;;16.10;67.24
37634;BME280;32048;49.902;22.508;2022-10-17T05:59:58;100021.44;;;16.30;66.82
37634;BME280;32048;49.902;22.508;2022-10-17T06:02:26;100026.53;;;16.50;65.77
37634;BME280;32048;49.902;22.508;2022-10-17T06:04:54;100026.28;;;16.71;64.15
37634;BME280;32048;49.902;22.508;2022-10-17T06:07:20;100028.19;;;16.85;63.19
37634;BME280;32048;49.902;22.508;2022-10-17T06:09:47;100032.19;;;16.92;63.12
37634;BME280;32048;49.902;22.508;2022-10-17T06:12:14;100035.81;;;17.07;62.49
37634;BME280;32048;49.902;22.508;2022-10-17T06:14:41;100030.50;;;17.21;62.00
37634;BME280;32048;49.902;22.508;2022-10-17T06:17:08;100046.88;;;17.45;61.78
37634;BME280;32048;49.902;22.508;2022-10-17T06:19:41;100049.69;;;17.58;59.42
37634;BME280;32048;49.902;22.508;2022-10-17T06:22:10;100047.59;;;17.63;59.85
37634;BME280;32048;49.902;22.508;2022-10-17T06:24:38;100044.84;;;17.79;60.14
37634;BME280;32048;49.902;22.508;2022-10-17T06:27:04;100046.41;;;18.12;57.85
37634;BME280;32048;49.902;22.508;2022-10-17T06:29:38;100036.47;;;18.28;57.21
37634;BME280;32048;49.902;22.508;2022-10-17T06:32:05;100053.34;;;18.43;57.21
37634;BME280;32048;49.902;22.508;2022-10-17T06:34:37;100037.38;;;18.56;55.17
37634;BME280;32048;49.902;22.508;2022-10-17T06:37:03;100037.81;;;18.62;55.76
37634;BME280;32048;49.902;22.508;2022-10-17T06:39:31;100040.41;;;18.64;55.56
37634;BME280;32048;49.902;22.508;2022-10-17T06:42:00;100045.16;;;18.73;55.07
37634;BME280;32048;49.902;22.508;2022-10-17T06:44:27;100052.22;;;18.74;55.42
37634;BME280;32048;49.902;22.508;2022-10-17T06:46:58;100049.34;;;18.92;54.75
37634;BME280;32048;49.902;22.508;2022-10-17T06:49:26;100057.63;;;19.01;54.80
37634;BME280;32048;49.902;22.508;2022-10-17T06:51:53;100063.78;;;19.16;53.58
37634;BME280;32048;49.902;22.508;2022-10-17T06:54:20;100055.97;;;19.26;53.77
37634;BME280;32048;49.902;22.508;2022-10-17T06:56:47;100062.53;;;19.35;52.81
37634;BME280;32048;49.902;22.508;2022-10-17T06:59:14;100066.84;;;19.37;53.36
37634;BME280;32048;49.902;22.508;2022-10-17T07:01:41;100065.25;;;19.47;52.56
37634;BME280;32048;49.902;22.508;2022-10-17T07:04:13;100071.56;;;19.46;52.53
37634;BME280;32048;49.902;22.508;2022-10-17T07:06:40;100062.66;;;19.46;52.85
37634;BME280;32048;49.902;22.508;2022-10-17T07:09:07;100057.66;;;19.67;53.20
37634;BME280;32048;49.902;22.508;2022-10-17T07:11:34;100062.84;;;20.21;51.32
37634;BME280;32048;49.902;22.508;2022-10-17T07:14:02;100059.66;;;20.53;49.55
37634;BME280;32048;49.902;22.508;2022-10-17T07:16:28;100057.06;;;20.51;48.84
37634;BME280;32048;49.902;22.508;2022-10-17T07:18:55;100064.38;;;20.62;49.04
37634;BME280;32048;49.902;22.508;2022-10-17T07:21:22;100065.53;;;20.71;48.44
37634;BME280;32048;49.902;22.508;2022-10-17T07:23:49;100076.59;;;20.79;48.48
37634;BME280;32048;49.902;22.508;2022-10-17T07:26:17;100068.28;;;20.82;48.22
37634;BME280;32048;49.902;22.508;2022-10-17T07:28:46;100079.28;;;21.03;47.23
37634;BME280;32048;49.902;22.508;2022-10-17T07:31:17;100073.22;;;21.12;46.89
37634;BME280;32048;49.902;22.508;2022-10-17T07:33:45;100069.31;;;21.16;47.49
37634;BME280;32048;49.902;22.508;2022-10-17T07:36:17;100079.56;;;21.35;46.52
37634;BME280;32048;49.902;22.508;2022-10-17T07:38:44;100078.47;;;21.38;46.35
37634;BME280;32048;49.902;22.508;2022-10-17T07:41:11;100077.25;;;21.66;46.31
37634;BME280;32048;49.902;22.508;2022-10-17T07:43:46;100086.66;;;21.72;45.64
37634;BME280;32048;49.902;22.508;2022-10-17T07:46:13;100078.97;;;21.78;45.46
37634;BME280;32048;49.902;22.508;2022-10-17T07:48:40;100080.44;;;21.83;45.00
37634;BME280;32048;49.902;22.508;2022-10-17T07:51:08;100083.47;;;21.67;45.28
37634;BME280;32048;49.902;22.508;2022-10-17T07:53:37;100083.06;;;21.49;46.28
37634;BME280;32048;49.902;22.508;2022-10-17T07:56:06;100080.31;;;21.73;45.04
37634;BME280;32048;49.902;22.508;2022-10-17T07:58:34;100079.25;;;21.87;45.04
37634;BME280;32048;49.902;22.508;2022-10-17T08:01:06;100090.03;;;21.98;45.03
37634;BME280;32048;49.902;22.508;2022-10-17T08:03:40;100088.50;;;22.29;43.87
37634;BME280;32048;49.902;22.508;2022-10-17T08:06:07;100075.41;;;22.25;44.83
37634;BME280;32048;49.902;22.508;2022-10-17T08:08:34;100084.06;;;22.39;43.92
37634;BME280;32048;49.902;22.508;2022-10-17T08:11:04;100083.09;;;22.63;43.80
37634;BME280;32048;49.902;22.508;2022-10-17T08:13:32;100095.88;;;22.82;42.44
37634;BME280;32048;49.902;22.508;2022-10-17T08:16:00;100093.44;;;22.90;42.34
37634;BME280;32048;49.902;22.508;2022-10-17T08:18:27;100089.16;;;22.88;42.86
37634;BME280;32048;49.902;22.508;2022-10-17T08:20:58;100089.72;;;23.14;42.16
37634;BME280;32048;49.902;22.508;2022-10-17T08:23:27;100096.59;;;23.07;42.34
37634;BME280;32048;49.902;22.508;2022-10-17T08:25:58;100097.44;;;23.18;42.63
37634;BME280;32048;49.902;22.508;2022-10-17T08:28:25;100092.03;;;23.51;42.21
37634;BME280;32048;49.902;22.508;2022-10-17T08:30:52;100090.59;;;24.10;41.45
37634;BME280;32048;49.902;22.508;2022-10-17T08:33:19;100081.97;;;24.46;39.20
37634;BME280;32048;49.902;22.508;2022-10-17T08:35:46;100101.28;;;24.42;39.32
37634;BME280;32048;49.902;22.508;2022-10-17T08:38:13;100099.59;;;24.51;39.74
37634;BME280;32048;49.902;22.508;2022-10-17T08:40:42;100092.03;;;24.44;38.89
37634;BME280;32048;49.902;22.508;2022-10-17T08:45:53;100104.56;;;24.76;39.07
37634;BME280;32048;49.902;22.508;2022-10-17T08:48:23;100111.28;;;24.92;38.75
37634;BME280;32048;49.902;22.508;2022-10-17T08:50:55;100110.72;;;25.07;38.63
37634;BME280;32048;49.902;22.508;2022-10-17T08:54:07;100116.81;;;24.90;37.86
37634;BME280;32048;49.902;22.508;2022-10-17T08:56:49;100121.38;;;24.49;39.25
37634;BME280;32048;49.902;22.508;2022-10-17T08:59:20;100106.88;;;24.50;39.65
37634;BME280;32048;49.902;22.508;2022-10-17T09:04:58;100103.34;;;24.28;39.36
37634;BME280;32048;49.902;22.508;2022-10-17T09:07:48;100106.22;;;24.37;39.77
37634;BME280;32048;49.902;22.508;2022-10-17T09:15:49;100103.38;;;25.19;38.68
37634;BME280;32048;49.902;22.508;2022-10-17T09:18:35;100105.69;;;25.34;38.37
37634;BME280;32048;49.902;22.508;2022-10-17T09:21:41;100097.13;;;25.19;38.55
37634;BME280;32048;49.902;22.508;2022-10-17T09:24:19;100099.97;;;25.27;38.80
37634;BME280;32048;49.902;22.508;2022-10-17T09:26:51;100098.56;;;25.52;38.88
37634;BME280;32048;49.902;22.508;2022-10-17T09:29:22;100091.53;;;25.98;37.67
37634;BME280;32048;49.902;22.508;2022-10-17T09:32:03;100102.72;;;26.23;37.02
37634;BME280;32048;49.902;22.508;2022-10-17T09:34:34;100101.13;;;26.30;36.51
37634;BME280;32048;49.902;22.508;2022-10-17T09:37:01;100096.56;;;26.30;36.89
37634;BME280;32048;49.902;22.508;2022-10-17T09:39:29;100109.16;;;26.59;36.50
37634;BME280;32048;49.902;22.508;2022-10-17T09:42:00;100106.53;;;27.23;35.42
37634;BME280;32048;49.902;22.508;2022-10-17T09:44:39;100103.44;;;27.35;36.04
37634;BME280;32048;49.902;22.508;2022-10-17T09:49:47;100098.00;;;27.53;34.22
37634;BME280;32048;49.902;22.508;2022-10-17T09:52:26;100103.50;;;27.44;35.67
37634;BME280;32048;49.902;22.508;2022-10-17T09:55:04;100119.00;;;27.87;33.84
37634;BME280;32048;49.902;22.508;2022-10-17T09:57:55;100106.56;;;27.67;34.24
37634;BME280;32048;49.902;22.508;2022-10-17T10:00:28;100101.16;;;27.67;34.58
37634;BME280;32048;49.902;22.508;2022-10-17T10:05:40;100101.28;;;28.01;33.24
37634;BME280;32048;49.902;22.508;2022-10-17T10:08:14;100091.91;;;27.77;33.69
37634;BME280;32048;49.902;22.508;2022-10-17T10:10:42;100098.84;;;27.72;33.76
37634;BME280;32048;49.902;22.508;2022-10-17T10:15:40;100092.34;;;27.47;34.44
37634;BME280;32048;49.902;22.508;2022-10-17T10:21:10;100085.56;;;27.15;34.80
37634;BME280;32048;49.902;22.508;2022-10-17T10:23:42;100088.00;;;27.36;34.01
37634;BME280;32048;49.902;22.508;2022-10-17T10:28:58;100086.38;;;27.25;35.50
37634;BME280;32048;49.902;22.508;2022-10-17T10:31:29;100079.22;;;27.06;35.73
37634;BME280;32048;49.902;22.508;2022-10-17T10:33:59;100079.97;;;26.99;36.05
37634;BME280;32048;49.902;22.508;2022-10-17T10:36:42;100085.81;;;27.40;35.30
37634;BME280;32048;49.902;22.508;2022-10-17T10:39:26;100077.28;;;27.70;33.99
37634;BME280;32048;49.902;22.508;2022-10-17T10:41:53;100065.03;;;27.48;34.50
37634;BME280;32048;49.902;22.508;2022-10-17T10:44:25;100069.94;;;27.45;35.18
37634;BME280;32048;49.902;22.508;2022-10-17T10:47:15;100077.97;;;27.72;34.82
37634;BME280;32048;49.902;22.508;2022-10-17T10:49:43;100080.47;;;28.10;34.24
37634;BME280;32048;49.902;22.508;2022-10-17T10:52:25;100075.97;;;28.27;33.46
37634;BME280;32048;49.902;22.508;2022-10-17T10:55:28;100089.50;;;27.92;34.21
37634;BME280;32048;49.902;22.508;2022-10-17T10:58:05;100087.38;;;28.04;33.57
37634;BME280;32048;49.902;22.508;2022-10-17T11:00:36;100079.50;;;28.19;34.48
37634;BME280;32048;49.902;22.508;2022-10-17T11:03:28;100077.69;;;28.28;33.57
37634;BME280;32048;49.902;22.508;2022-10-17T11:06:03;100086.34;;;28.57;32.83
37634;BME280;32048;49.902;22.508;2022-10-17T11:08:43;100075.19;;;28.43;33.90
37634;BME280;32048;49.902;22.508;2022-10-17T11:11:27;100083.97;;;28.63;33.59
37634;BME280;32048;49.902;22.508;2022-10-17T11:14:26;100074.75;;;28.98;32.54
37634;BME280;32048;49.902;22.508;2022-10-17T11:22:41;100067.66;;;30.03;30.90
37634;BME280;32048;49.902;22.508;2022-10-17T11:27:35;100057.84;;;29.78;31.97
37634;BME280;32048;49.902;22.508;2022-10-17T11:30:04;100057.63;;;29.63;32.39
37634;BME280;32048;49.902;22.508;2022-10-17T11:32:45;100053.91;;;29.31;32.84
37634;BME280;32048;49.902;22.508;2022-10-17T11:35:25;100056.78;;;29.30;32.24
37634;BME280;32048;49.902;22.508;2022-10-17T11:40:57;100058.31;;;29.57;31.41
37634;BME280;32048;49.902;22.508;2022-10-17T11:43:29;100057.13;;;29.43;30.19
37634;BME280;32048;49.902;22.508;2022-10-17T11:46:17;100049.91;;;29.01;31.27
37634;BME280;32048;49.902;22.508;2022-10-17T11:51:15;100036.69;;;28.47;33.36
37634;BME280;32048;49.902;22.508;2022-10-17T11:54:13;100039.41;;;28.47;33.00
37634;BME280;32048;49.902;22.508;2022-10-17T12:02:41;100033.31;;;28.19;33.36
37634;BME280;32048;49.902;22.508;2022-10-17T12:05:24;100040.34;;;28.38;32.39
37634;BME280;32048;49.902;22.508;2022-10-17T12:08:01;100025.69;;;28.23;33.54
37634;BME280;32048;49.902;22.508;2022-10-17T12:18:43;100024.91;;;27.16;34.60
37634;BME280;32048;49.902;22.508;2022-10-17T12:21:10;100037.16;;;27.02;35.32
37634;BME280;32048;49.902;22.508;2022-10-17T12:23:38;100030.34;;;26.98;35.14
37634;BME280;32048;49.902;22.508;2022-10-17T12:26:07;100024.75;;;26.82;35.53
37634;BME280;32048;49.902;22.508;2022-10-17T12:28:46;100033.13;;;26.88;35.22
37634;BME280;32048;49.902;22.508;2022-10-17T12:33:50;100036.69;;;27.07;35.57
37634;BME280;32048;49.902;22.508;2022-10-17T12:46:55;100023.03;;;27.16;34.43
37634;BME280;32048;49.902;22.508;2022-10-17T12:52:49;100031.38;;;26.69;34.84
37634;BME280;32048;49.902;22.508;2022-10-17T12:55:16;100026.88;;;26.60;35.51
37634;BME280;32048;49.902;22.508;2022-10-17T12:57:50;100033.47;;;26.48;34.98
37634;BME280;32048;49.902;22.508;2022-10-17T13:00:34;100027.25;;;26.38;36.26
37634;BME280;32048;49.902;22.508;2022-10-17T13:03:23;100026.66;;;26.44;35.91
37634;BME280;32048;49.902;22.508;2022-10-17T13:05:53;100034.34;;;26.48;34.93
37634;BME280;32048;49.902;22.508;2022-10-17T13:08:24;100035.44;;;26.28;35.24
37634;BME280;32048;49.902;22.508;2022-10-17T13:10:53;100024.44;;;26.02;35.79
37634;BME280;32048;49.902;22.508;2022-10-17T13:13:25;100034.53;;;26.00;36.06
37634;BME280;32048;49.902;22.508;2022-10-17T13:15:59;100026.88;;;25.95;36.13
37634;BME280;32048;49.902;22.508;2022-10-17T13:18:28;100026.47;;;25.90;36.64
37634;BME280;32048;49.902;22.508;2022-10-17T13:23:29;100019.81;;;26.12;35.92
37634;BME280;32048;49.902;22.508;2022-10-17T13:26:25;100018.97;;;26.11;35.76
37634;BME280;32048;49.902;22.508;2022-10-17T13:31:33;100010.81;;;25.64;36.18
37634;BME280;32048;49.902;22.508;2022-10-17T13:34:03;100012.81;;;25.62;36.45
37634;BME280;32048;49.902;22.508;2022-10-17T13:36:31;100019.69;;;25.57;36.83
37634;BME280;32048;49.902;22.508;2022-10-17T13:39:08;100012.28;;;25.49;36.05
37634;BME280;32048;49.902;22.508;2022-10-17T13:41:40;100015.28;;;25.17;37.47
37634;BME280;32048;49.902;22.508;2022-10-17T13:44:27;100007.03;;;24.99;37.47
37634;BME280;32048;49.902;22.508;2022-10-17T13:46:57;100012.28;;;24.90;37.48
37634;BME280;32048;49.902;22.508;2022-10-17T13:49:38;100012.94;;;24.54;38.44
37634;BME280;32048;49.902;22.508;2022-10-17T13:52:14;100017.63;;;24.21;39.03
37634;BME280;32048;49.902;22.508;2022-10-17T13:54:45;100006.72;;;23.92;39.76
37634;BME280;32048;49.902;22.508;2022-10-17T13:57:22;100015.22;;;23.66;40.00
37634;BME280;32048;49.902;22.508;2022-10-17T13:59:56;100010.22;;;23.40;41.07
37634;BME280;32048;49.902;22.508;2022-10-17T14:02:26;100012.06;;;23.19;41.36
37634;BME280;32048;49.902;22.508;2022-10-17T14:07:56;100004.91;;;22.53;43.17
37634;BME280;32048;49.902;22.508;2022-10-17T14:10:40;100002.75;;;22.25;43.97
37634;BME280;32048;49.902;22.508;2022-10-17T14:13:28;100009.06;;;22.01;44.30
37634;BME280;32048;49.902;22.508;2022-10-17T14:15:59;100005.28;;;21.81;44.85
37634;BME280;32048;49.902;22.508;2022-10-17T14:18:32;100007.34;;;21.66;45.38
37634;BME280;32048;49.902;22.508;2022-10-17T14:21:03;100002.31;;;21.50;46.42
37634;BME280;32048;49.902;22.508;2022-10-17T14:24:10;99998.84;;;21.37;46.47
37634;BME280;32048;49.902;22.508;2022-10-17T14:26:46;100001.69;;;21.23;47.27
37634;BME280;32048;49.902;22.508;2022-10-17T14:29:25;100006.19;;;21.11;47.20
37634;BME280;32048;49.902;22.508;2022-10-17T14:32:06;100000.66;;;21.01;47.85
37634;BME280;32048;49.902;22.508;2022-10-17T14:34:38;100000.81;;;20.87;48.56
37634;BME280;32048;49.902;22.508;2022-10-17T14:39:52;100002.56;;;20.64;49.27
37634;BME280;32048;49.902;22.508;2022-10-17T14:42:21;100006.72;;;20.55;50.10
37634;BME280;32048;49.902;22.508;2022-10-17T14:44:50;100004.72;;;20.46;50.36
37634;BME280;32048;49.902;22.508;2022-10-17T14:47:20;100007.22;;;20.36;51.17
37634;BME280;32048;49.902;22.508;2022-10-17T14:52:36;100008.88;;;20.13;52.78
37634;BME280;32048;49.902;22.508;2022-10-17T14:55:23;100005.16;;;20.03;52.78
37634;BME280;32048;49.902;22.508;2022-10-17T14:57:51;100004.94;;;19.93;52.97
37634;BME280;32048;49.902;22.508;2022-10-17T15:00:19;100008.25;;;19.84;53.99
37634;BME280;32048;49.902;22.508;2022-10-17T15:02:48;100006.56;;;19.70;54.34
37634;BME280;32048;49.902;22.508;2022-10-17T15:05:15;99997.53;;;19.58;54.28
37634;BME280;32048;49.902;22.508;2022-10-17T15:07:42;99993.00;;;19.46;54.76